Time,TemperatureF,DewpointF,PressureIn,WindDirection,WindDirectionDegrees,WindSpeedMPH,WindSpeedGustMPH,Humidity,HourlyPrecipIn,Conditions,Clouds,dailyrainin,SoftwareType,DateUTC
2013-04-29 00:00:00,55.7,56.0,29.85,NE,43,0.0,-999.0,98,-99.99,,,1.00,ADS-WS1 bash script,2013-04-29 04:00:00,
2013-04-29 00:05:00,55.7,56.0,29.85,NE,43,0.0,-999.0,98,-99.99,,,1.00,ADS-WS1 bash script,2013-04-29 04:05:00,
2013-04-29 00:10:00,55.7,55.0,29.85,NE,43,0.0,-999.0,97,-99.99,,,1.00,ADS-WS1 bash script,2013-04-29 04:10:00,
2013-04-29 00:15:00,55.8,56.0,29.85,NE,43,0.0,-999.0,98,-99.99,,,1.00,ADS-WS1 bash script,2013-04-29 04:15:00,
2013-04-29 00:20:00,55.8,56.0,29.85,North,0,0.0,-999.0,100,-99.99,,,0.00,ADS-WS1 bash script,2013-04-29 04:20:00,
2013-04-29 00:30:00,56.0,56.0,29.85,North,0,0.0,-999.0,100,-99.99,,,0.00,ADS-WS1 bash script,2013-04-29 04:30:00,
2013-04-29 00:40:00,56.0,56.0,29.85,NW,313,0.0,-999.0,100,-99.99,,,0.00,ADS-WS1 bash script,2013-04-29 04:40:00,
2013-04-29 00:45:00,55.8,56.0,29.84,North,0,0.0,-999.0,100,-99.99,,,0.00,ADS-WS1 bash script,2013-04-29 04:45:00,
2013-04-29 00:50:00,56.0,56.0,29.85,NW,313,0.0,-999.0,100,-99.99,,,0.00,ADS-WS1 bash script,2013-04-29 04:50:00,
2013-04-29 00:55:00,56.0,56.0,29.85,NNW,335,0.0,-999.0,100,-99.99,,,0.00,ADS-WS1 bash script,2013-04-29 04:55:00,
2013-04-29 01:00:00,55.8,56.0,29.85,NW,313,0.0,-999.0,100,-99.99,,,0.00,ADS-WS1 bash script,2013-04-29 05:00:00,
2013-04-29 01:10:00,55.8,56.0,29.85,North,0,0.0,-999.0,100,-99.99,,,0.00,ADS-WS1 bash script,2013-04-29 05:10:00,
2013-04-29 01:20:00,55.8,56.0,29.85,NW,313,0.0,-999.0,100,-99.99,,,0.00,ADS-WS1 bash script,2013-04-29 05:20:00,
2013-04-29 07:10:00,52.1,50.0,29.91,NW,313,0.0,-999.0,93,-99.99,,,0.00,ADS-WS1 bash script,2013-04-29 11:10:00,
2013-04-29 07:20:00,52.6,53.0,29.91,NW,313,0.0,-999.0,98,-99.99,,,0.00,ADS-WS1 bash script,2013-04-29 11:20:00,
2013-04-29 07:25:00,52.8,53.0,29.91,NW,313,0.0,-999.0,98,-99.99,,,0.00,ADS-WS1 bash script,2013-04-29 11:25:00,
2013-04-29 07:35:00,53.2,53.0,29.91,NW,313,0.0,-999.0,99,-99.99,,,0.00,ADS-WS1 bash script,2013-04-29 11:35:00,
2013-04-29 07:40:00,53.3,53.0,29.91,West,268,0.0,-999.0,99,-99.99,,,0.00,ADS-WS1 bash script,2013-04-29 11:40:00,
2013-04-29 07:45:00,53.7,54.0,29.91,WNW,296,1.0,-999.0,100,-99.99,,,0.00,ADS-WS1 bash script,2013-04-29 11:45:00,
2013-04-29 07:55:00,53.9,54.0,29.92,West,268,0.0,-999.0,99,-99.99,,,0.00,ADS-WS1 bash script,2013-04-29 11:55:00,
2013-04-29 08:00:00,54.1,54.0,29.92,West,268,1.0,-999.0,99,-99.99,,,0.00,ADS-WS1 bash script,2013-04-29 12:00:00,
2013-04-29 08:05:00,54.1,54.0,29.92,NW,313,1.0,-999.0,100,-99.99,,,0.00,ADS-WS1 bash script,2013-04-29 12:05:00,
2013-04-29 08:10:00,54.2,54.0,29.93,West,268,1.0,-999.0,100,-99.99,,,0.00,ADS-WS1 bash script,2013-04-29 12:10:00,
2013-04-29 08:15:00,54.2,54.0,29.93,NW,313,1.0,-999.0,99,-99.99,,,0.00,ADS-WS1 bash script,2013-04-29 12:15:00,
2013-04-29 08:20:00,54.4,54.0,29.93,NW,313,1.0,-999.0,99,-99.99,,,0.00,ADS-WS1 bash script,2013-04-29 12:20:00,
2013-04-29 08:25:00,54.4,54.0,29.94,West,268,1.0,-999.0,99,-99.99,,,0.00,ADS-WS1 bash script,2013-04-29 12:25:00,
2013-04-29 08:35:00,54.6,55.0,29.93,West,275,0.0,-999.0,99,-99.99,,,0.00,ADS-WS1 bash script,2013-04-29 12:35:00,
2013-04-29 08:40:00,54.8,55.0,29.94,West,268,1.0,-999.0,99,-99.99,,,0.00,ADS-WS1 bash script,2013-04-29 12:40:00,
2013-04-29 08:45:00,55.0,55.0,29.93,NW,313,2.0,-999.0,99,-99.99,,,0.00,ADS-WS1 bash script,2013-04-29 12:45:00,
2013-04-29 08:50:00,55.0,55.0,29.94,NW,313,0.0,-999.0,99,-99.99,,,0.00,ADS-WS1 bash script,2013-04-29 12:50:00,
2013-04-29 08:55:00,55.1,55.0,29.94,West,268,1.0,-999.0,99,-99.99,,,0.00,ADS-WS1 bash script,2013-04-29 12:55:00,
2013-04-29 09:00:00,55.1,55.0,29.94,West,268,0.0,-999.0,98,-99.99,,,0.00,ADS-WS1 bash script,2013-04-29 13:00:00,
2013-04-29 09:05:00,55.3,55.0,29.94,West,268,2.0,-999.0,98,-99.99,,,0.00,ADS-WS1 bash script,2013-04-29 13:05:00,
2013-04-29 09:10:00,55.5,56.0,29.94,West,268,1.0,-999.0,98,-99.99,,,0.00,ADS-WS1 bash script,2013-04-29 13:10:00,
2013-04-29 09:15:00,55.5,55.0,29.94,WNW,290,1.0,-999.0,97,-99.99,,,0.00,ADS-WS1 bash script,2013-04-29 13:15:00,
2013-04-29 09:20:00,55.7,55.0,29.94,West,268,0.0,-999.0,96,-99.99,,,0.00,ADS-WS1 bash script,2013-04-29 13:20:00,
2013-04-29 09:25:00,55.8,55.0,29.94,West,268,0.0,-999.0,96,-99.99,,,0.00,ADS-WS1 bash script,2013-04-29 13:25:00,
2013-04-29 09:30:00,55.8,55.0,29.94,West,265,1.0,-999.0,96,-99.99,,,0.00,ADS-WS1 bash script,2013-04-29 13:30:00,
2013-04-29 09:35:00,56.0,55.0,29.94,NW,313,2.0,-999.0,97,-99.99,,,0.00,ADS-WS1 bash script,2013-04-29 13:35:00,
2013-04-29 09:40:00,56.2,55.0,29.94,SW,227,1.0,-999.0,96,-99.99,,,0.00,ADS-WS1 bash script,2013-04-29 13:40:00,
2013-04-29 09:50:00,56.6,56.0,29.94,NW,309,1.0,-999.0,95,-99.99,,,0.00,ADS-WS1 bash script,2013-04-29 13:50:00,
2013-04-29 09:55:00,56.7,55.0,29.94,NW,306,1.0,-999.0,93,-99.99,,,0.00,ADS-WS1 bash script,2013-04-29 13:55:00,
2013-04-29 10:00:00,57.1,55.0,29.94,WNW,302,1.0,-999.0,93,-99.99,,,0.00,ADS-WS1 bash script,2013-04-29 14:00:00,
2013-04-29 10:05:00,57.1,55.0,29.94,NW,313,0.0,-999.0,92,-99.99,,,0.00,ADS-WS1 bash script,2013-04-29 14:05:00,
2013-04-29 10:10:00,57.3,55.0,29.94,NW,313,1.0,-999.0,93,-99.99,,,0.00,ADS-WS1 bash script,2013-04-29 14:10:00,
2013-04-29 10:15:00,57.5,56.0,29.94,North,0,1.0,-999.0,92,-99.99,,,0.00,ADS-WS1 bash script,2013-04-29 14:15:00,
2013-04-29 10:25:00,58.2,55.0,29.95,NNW,343,4.0,-999.0,90,-99.99,,,0.00,ADS-WS1 bash script,2013-04-29 14:25:00,
2013-04-29 10:30:00,58.2,55.0,29.94,NNW,341,2.0,-999.0,89,-99.99,,,0.00,ADS-WS1 bash script,2013-04-29 14:30:00,
2013-04-29 10:35:00,58.4,54.0,29.94,NW,319,2.0,-999.0,88,-99.99,,,0.00,ADS-WS1 bash script,2013-04-29 14:35:00,
2013-04-29 10:40:00,58.7,56.0,29.94,North,0,1.0,-999.0,89,-99.99,,,0.00,ADS-WS1 bash script,2013-04-29 14:40:00,
2013-04-29 10:45:00,59.1,55.0,29.94,North,0,2.0,-999.0,88,-99.99,,,0.00,ADS-WS1 bash script,2013-04-29 14:45:00,
2013-04-29 10:50:00,59.4,54.0,29.94,NNW,335,3.0,-999.0,85,-99.99,,,0.00,ADS-WS1 bash script,2013-04-29 14:50:00,
2013-04-29 10:55:00,59.6,56.0,29.94,NNE,16,1.0,-999.0,87,-99.99,,,0.00,ADS-WS1 bash script,2013-04-29 14:55:00,
2013-04-29 11:00:00,60.0,55.0,29.95,NNW,347,3.0,-999.0,85,-99.99,,,0.00,ADS-WS1 bash script,2013-04-29 15:00:00,
2013-04-29 11:05:00,59.8,55.0,29.94,NE,35,2.0,-999.0,84,-99.99,,,0.00,ADS-WS1 bash script,2013-04-29 15:05:00,
2013-04-29 11:10:00,60.0,55.0,29.95,NNW,340,0.0,-999.0,86,-99.99,,,0.00,ADS-WS1 bash script,2013-04-29 15:10:00,
2013-04-29 11:15:00,60.3,55.0,29.95,East,88,1.0,-999.0,85,-99.99,,,0.00,ADS-WS1 bash script,2013-04-29 15:15:00,
2013-04-29 11:20:00,60.9,55.0,29.95,NW,313,3.0,-999.0,83,-99.99,,,0.00,ADS-WS1 bash script,2013-04-29 15:20:00,
2013-04-29 11:25:00,61.1,55.0,29.94,NW,313,0.0,-999.0,81,-99.99,,,0.00,ADS-WS1 bash script,2013-04-29 15:25:00,
2013-04-29 11:30:00,61.6,56.0,29.94,NE,43,2.0,-999.0,81,-99.99,,,0.00,ADS-WS1 bash script,2013-04-29 15:30:00,
2013-04-29 11:35:00,62.0,56.0,29.94,NE,50,3.0,-999.0,81,-99.99,,,0.00,ADS-WS1 bash script,2013-04-29 15:35:00,
2013-04-29 11:45:00,62.3,54.0,29.94,WNW,286,3.0,-999.0,76,-99.99,,,0.00,ADS-WS1 bash script,2013-04-29 15:45:00,
2013-04-29 11:50:00,62.5,54.0,29.94,West,279,3.0,-999.0,76,-99.99,,,0.00,ADS-WS1 bash script,2013-04-29 15:50:00,
2013-04-29 11:55:00,62.5,55.0,29.94,NNW,341,1.0,-999.0,78,-99.99,,,0.00,ADS-WS1 bash script,2013-04-29 15:55:00,
2013-04-29 12:05:00,62.5,53.0,29.94,NE,43,2.0,-999.0,73,-99.99,,,0.00,ADS-WS1 bash script,2013-04-29 16:05:00,
2013-04-29 12:10:00,62.9,54.0,29.94,NW,313,2.0,-999.0,75,-99.99,,,0.00,ADS-WS1 bash script,2013-04-29 16:10:00,
2013-04-29 12:15:00,63.4,54.0,29.94,WNW,286,1.0,-999.0,75,-99.99,,,0.00,ADS-WS1 bash script,2013-04-29 16:15:00,
2013-04-29 12:20:00,64.3,54.0,29.94,WNW,290,2.0,-999.0,72,-99.99,,,0.00,ADS-WS1 bash script,2013-04-29 16:20:00,
2013-04-29 12:25:00,64.5,54.0,29.94,NW,313,0.0,-999.0,72,-99.99,,,0.00,ADS-WS1 bash script,2013-04-29 16:25:00,
2013-04-29 12:30:00,64.3,54.0,29.94,North,0,0.0,-999.0,70,-99.99,,,0.00,ADS-WS1 bash script,2013-04-29 16:30:00,
2013-04-29 12:40:00,64.8,54.0,29.94,West,268,4.0,-999.0,69,-99.99,,,0.00,ADS-WS1 bash script,2013-04-29 16:40:00,
2013-04-29 12:50:00,65.2,54.0,29.94,NNW,335,3.0,-999.0,69,-99.99,,,0.00,ADS-WS1 bash script,2013-04-29 16:50:00,
2013-04-29 12:55:00,65.9,54.0,29.93,WNW,290,3.0,-999.0,66,-99.99,,,0.00,ADS-WS1 bash script,2013-04-29 16:55:00,
2013-04-29 13:00:00,66.6,57.0,29.93,NW,313,3.0,-999.0,70,-99.99,,,0.00,ADS-WS1 bash script,2013-04-29 17:00:00,
2013-04-29 13:05:00,66.5,54.0,29.93,West,268,2.0,-999.0,65,-99.99,,,0.00,ADS-WS1 bash script,2013-04-29 17:05:00,
2013-04-29 13:10:00,66.6,55.0,29.93,NW,313,4.0,-999.0,66,-99.99,,,0.00,ADS-WS1 bash script,2013-04-29 17:10:00,
2013-04-29 13:15:00,66.6,55.0,29.93,NNW,331,5.0,-999.0,65,-99.99,,,0.00,ADS-WS1 bash script,2013-04-29 17:15:00,
2013-04-29 13:25:00,66.1,54.0,29.93,WNW,290,4.0,-999.0,65,-99.99,,,0.00,ADS-WS1 bash script,2013-04-29 17:25:00,
2013-04-29 13:30:00,66.3,53.0,29.93,NNW,330,1.0,-999.0,63,-99.99,,,0.00,ADS-WS1 bash script,2013-04-29 17:30:00,
2013-04-29 13:35:00,66.5,54.0,29.93,NNW,335,3.0,-999.0,65,-99.99,,,0.00,ADS-WS1 bash script,2013-04-29 17:35:00,
2013-04-29 13:40:00,66.5,53.0,29.93,West,266,4.0,-999.0,63,-99.99,,,0.00,ADS-WS1 bash script,2013-04-29 17:40:00,
2013-04-29 13:45:00,66.1,53.0,29.93,North,0,3.0,-999.0,63,-99.99,,,0.00,ADS-WS1 bash script,2013-04-29 17:45:00,
2013-04-29 13:50:00,65.9,54.0,29.93,WNW,290,2.0,-999.0,64,-99.99,,,0.00,ADS-WS1 bash script,2013-04-29 17:50:00,
2013-04-29 13:55:00,66.5,54.0,29.93,South,179,0.0,-999.0,64,-99.99,,,0.00,ADS-WS1 bash script,2013-04-29 17:55:00,
2013-04-29 14:00:00,67.2,54.0,29.93,West,268,0.0,-999.0,63,-99.99,,,0.00,ADS-WS1 bash script,2013-04-29 18:00:00,
2013-04-29 14:05:00,67.7,55.0,29.92,North,0,0.0,-999.0,62,-99.99,,,0.00,ADS-WS1 bash script,2013-04-29 18:05:00,
2013-04-29 14:10:00,68.6,55.0,29.92,WNW,297,1.0,-999.0,60,-99.99,,,0.00,ADS-WS1 bash script,2013-04-29 18:10:00,
2013-04-29 14:15:00,69.0,55.0,29.92,WNW,302,4.0,-999.0,60,-99.99,,,0.00,ADS-WS1 bash script,2013-04-29 18:15:00,
2013-04-29 14:20:00,69.0,55.0,29.93,WNW,299,4.0,-999.0,60,-99.99,,,0.00,ADS-WS1 bash script,2013-04-29 18:20:00,
2013-04-29 14:25:00,69.0,55.0,29.93,West,268,2.0,-999.0,60,-99.99,,,0.00,ADS-WS1 bash script,2013-04-29 18:25:00,
2013-04-29 14:35:00,68.6,55.0,29.92,WSW,245,2.0,-999.0,60,-99.99,,,0.00,ADS-WS1 bash script,2013-04-29 18:35:00,
2013-04-29 14:40:00,69.1,54.0,29.92,North,0,2.0,-999.0,57,-99.99,,,0.00,ADS-WS1 bash script,2013-04-29 18:40:00,
2013-04-29 14:45:00,69.3,55.0,29.92,West,279,1.0,-999.0,59,-99.99,,,0.00,ADS-WS1 bash script,2013-04-29 18:45:00,
2013-04-29 14:50:00,69.7,56.0,29.92,SSW,194,6.0,-999.0,59,-99.99,,,0.00,ADS-WS1 bash script,2013-04-29 18:50:00,
2013-04-29 15:00:00,69.0,55.0,29.92,East,95,2.0,-999.0,59,-99.99,,,0.00,ADS-WS1 bash script,2013-04-29 19:00:00,
2013-04-29 15:05:00,69.0,55.0,29.92,WSW,238,2.0,-999.0,60,-99.99,,,0.00,ADS-WS1 bash script,2013-04-29 19:05:00,
2013-04-29 15:10:00,69.0,55.0,29.91,South,170,1.0,-999.0,60,-99.99,,,0.00,ADS-WS1 bash script,2013-04-29 19:10:00,
2013-04-29 15:15:00,69.0,54.0,29.91,WSW,237,5.0,-999.0,58,-99.99,,,0.00,ADS-WS1 bash script,2013-04-29 19:15:00,
2013-04-29 15:20:00,69.1,55.0,29.92,West,278,8.0,-999.0,59,-99.99,,,0.00,ADS-WS1 bash script,2013-04-29 19:20:00,
2013-04-29 15:30:00,69.0,55.0,29.91,East,100,0.0,-999.0,59,-99.99,,,0.00,ADS-WS1 bash script,2013-04-29 19:30:00,
2013-04-29 15:35:00,69.1,55.0,29.91,WSW,241,2.0,-999.0,59,-99.99,,,0.00,ADS-WS1 bash script,2013-04-29 19:35:00,
2013-04-29 15:40:00,69.1,54.0,29.91,SSW,211,2.0,-999.0,57,-99.99,,,0.00,ADS-WS1 bash script,2013-04-29 19:40:00,
2013-04-29 15:45:00,68.8,55.0,29.91,SW,228,3.0,-999.0,59,-99.99,,,0.00,ADS-WS1 bash script,2013-04-29 19:45:00,
2013-04-29 15:50:00,69.5,56.0,29.91,West,268,6.0,-999.0,59,-99.99,,,0.00,ADS-WS1 bash script,2013-04-29 19:50:00,
2013-04-29 15:55:00,69.9,55.0,29.91,WSW,254,6.0,-999.0,56,-99.99,,,0.00,ADS-WS1 bash script,2013-04-29 19:55:00,
2013-04-29 16:00:00,69.7,55.0,29.91,WSW,245,3.0,-999.0,56,-99.99,,,0.00,ADS-WS1 bash script,2013-04-29 20:00:00,
2013-04-29 16:05:00,69.7,55.0,29.91,SW,224,4.0,-999.0,57,-99.99,,,0.00,ADS-WS1 bash script,2013-04-29 20:05:00,
2013-04-29 16:15:00,69.9,55.0,29.91,West,275,3.0,-999.0,58,-99.99,,,0.00,ADS-WS1 bash script,2013-04-29 20:15:00,
2013-04-29 16:25:00,69.7,55.0,29.91,WSW,254,2.0,-999.0,57,-99.99,,,0.00,ADS-WS1 bash script,2013-04-29 20:25:00,
2013-04-29 16:30:00,69.5,56.0,29.90,SSW,208,2.0,-999.0,60,-99.99,,,0.00,ADS-WS1 bash script,2013-04-29 20:30:00,
2013-04-29 16:35:00,69.7,56.0,29.91,South,186,2.0,-999.0,60,-99.99,,,0.00,ADS-WS1 bash script,2013-04-29 20:35:00,
2013-04-29 16:40:00,69.7,55.0,29.91,SW,224,4.0,-999.0,58,-99.99,,,0.00,ADS-WS1 bash script,2013-04-29 20:40:00,
2013-04-29 16:45:00,69.5,55.0,29.90,SSW,200,4.0,-999.0,57,-99.99,,,0.00,ADS-WS1 bash script,2013-04-29 20:45:00,
2013-04-29 16:50:00,69.7,56.0,29.90,WSW,251,4.0,-999.0,59,-99.99,,,0.00,ADS-WS1 bash script,2013-04-29 20:50:00,
2013-04-29 16:55:00,70.0,56.0,29.90,SSW,200,1.0,-999.0,60,-99.99,,,0.00,ADS-WS1 bash script,2013-04-29 20:55:00,
2013-04-29 17:00:00,70.9,57.0,29.90,SSW,193,2.0,-999.0,59,-99.99,,,0.00,ADS-WS1 bash script,2013-04-29 21:00:00,
2013-04-29 17:05:00,70.6,56.0,29.90,SSW,194,2.0,-999.0,58,-99.99,,,0.00,ADS-WS1 bash script,2013-04-29 21:05:00,
2013-04-29 17:10:00,70.4,56.0,29.90,South,179,4.0,-999.0,59,-99.99,,,0.00,ADS-WS1 bash script,2013-04-29 21:10:00,
2013-04-29 17:20:00,69.9,56.0,29.90,SW,224,5.0,-999.0,60,-99.99,,,0.00,ADS-WS1 bash script,2013-04-29 21:20:00,
2013-04-29 17:25:00,69.9,55.0,29.90,West,268,3.0,-999.0,58,-99.99,,,0.00,ADS-WS1 bash script,2013-04-29 21:25:00,
2013-04-29 17:35:00,70.4,55.0,29.90,NW,313,3.0,-999.0,58,-99.99,,,0.00,ADS-WS1 bash script,2013-04-29 21:35:00,
2013-04-29 17:40:00,71.1,56.0,29.90,WSW,244,3.0,-999.0,56,-99.99,,,0.00,ADS-WS1 bash script,2013-04-29 21:40:00,
2013-04-29 17:45:00,71.5,56.0,29.90,SSW,210,2.0,-999.0,55,-99.99,,,0.00,ADS-WS1 bash script,2013-04-29 21:45:00,
2013-04-29 17:55:00,70.6,56.0,29.91,SW,234,1.0,-999.0,56,-99.99,,,0.00,ADS-WS1 bash script,2013-04-29 21:55:00,
2013-04-29 18:05:00,70.4,55.0,29.91,West,268,4.0,-999.0,58,-99.99,,,0.00,ADS-WS1 bash script,2013-04-29 22:05:00,
2013-04-29 18:10:00,70.6,56.0,29.90,WSW,245,4.0,-999.0,56,-99.99,,,0.00,ADS-WS1 bash script,2013-04-29 22:10:00,
2013-04-29 18:15:00,70.4,55.0,29.91,West,261,2.0,-999.0,58,-99.99,,,0.00,ADS-WS1 bash script,2013-04-29 22:15:00,
2013-04-29 18:25:00,70.0,55.0,29.90,West,259,2.0,-999.0,58,-99.99,,,0.00,ADS-WS1 bash script,2013-04-29 22:25:00,
2013-04-29 18:30:00,69.9,55.0,29.91,SE,145,1.0,-999.0,58,-99.99,,,0.00,ADS-WS1 bash script,2013-04-29 22:30:00,
2013-04-29 18:35:00,69.9,56.0,29.91,West,262,3.0,-999.0,59,-99.99,,,0.00,ADS-WS1 bash script,2013-04-29 22:35:00,
2013-04-29 18:40:00,69.7,55.0,29.91,WSW,238,3.0,-999.0,58,-99.99,,,0.00,ADS-WS1 bash script,2013-04-29 22:40:00,
2013-04-29 18:45:00,69.5,56.0,29.90,SW,214,2.0,-999.0,60,-99.99,,,0.00,ADS-WS1 bash script,2013-04-29 22:45:00,
2013-04-29 18:50:00,69.3,55.0,29.90,SSW,200,1.0,-999.0,59,-99.99,,,0.00,ADS-WS1 bash script,2013-04-29 22:50:00,
2013-04-29 18:55:00,69.1,55.0,29.90,SW,224,2.0,-999.0,61,-99.99,,,0.00,ADS-WS1 bash script,2013-04-29 22:55:00,
2013-04-29 19:00:00,69.0,55.0,29.91,West,268,2.0,-999.0,60,-99.99,,,0.00,ADS-WS1 bash script,2013-04-29 23:00:00,
2013-04-29 19:05:00,69.1,55.0,29.91,SSW,200,1.0,-999.0,61,-99.99,,,0.00,ADS-WS1 bash script,2013-04-29 23:05:00,
2013-04-29 19:10:00,69.0,55.0,29.90,SW,217,2.0,-999.0,61,-99.99,,,0.00,ADS-WS1 bash script,2013-04-29 23:10:00,
2013-04-29 19:15:00,68.8,55.0,29.90,SW,227,2.0,-999.0,60,-99.99,,,0.00,ADS-WS1 bash script,2013-04-29 23:15:00,
2013-04-29 19:25:00,68.8,55.0,29.90,SW,224,4.0,-999.0,61,-99.99,,,0.00,ADS-WS1 bash script,2013-04-29 23:25:00,
2013-04-29 19:30:00,68.6,55.0,29.90,SW,234,2.0,-999.0,61,-99.99,,,0.00,ADS-WS1 bash script,2013-04-29 23:30:00,
2013-04-29 19:40:00,68.4,55.0,29.91,WSW,255,3.0,-999.0,62,-99.99,,,0.00,ADS-WS1 bash script,2013-04-29 23:40:00,
2013-04-29 19:45:00,68.2,55.0,29.91,South,187,3.0,-999.0,62,-99.99,,,0.00,ADS-WS1 bash script,2013-04-29 23:45:00,
2013-04-29 19:50:00,68.1,55.0,29.91,South,190,1.0,-999.0,63,-99.99,,,0.00,ADS-WS1 bash script,2013-04-29 23:50:00,
2013-04-29 19:55:00,67.7,56.0,29.91,South,179,2.0,-999.0,65,-99.99,,,0.00,ADS-WS1 bash script,2013-04-29 23:55:00,
2013-04-29 20:05:00,66.8,56.0,29.92,South,182,3.0,-999.0,69,-99.99,,,0.00,ADS-WS1 bash script,2013-04-30 00:05:00,
2013-04-29 20:10:00,66.3,56.0,29.91,South,190,1.0,-999.0,70,-99.99,,,0.00,ADS-WS1 bash script,2013-04-30 00:10:00,
2013-04-29 20:15:00,65.9,56.0,29.91,South,179,3.0,-999.0,70,-99.99,,,0.00,ADS-WS1 bash script,2013-04-30 00:15:00,
2013-04-29 20:20:00,65.6,56.0,29.92,South,179,3.0,-999.0,70,-99.99,,,0.00,ADS-WS1 bash script,2013-04-30 00:20:00,
2013-04-29 20:25:00,65.2,55.0,29.92,South,179,1.0,-999.0,71,-99.99,,,0.00,ADS-WS1 bash script,2013-04-30 00:25:00,
2013-04-29 20:30:00,64.8,55.0,29.92,South,179,2.0,-999.0,72,-99.99,,,0.00,ADS-WS1 bash script,2013-04-30 00:30:00,
2013-04-29 20:40:00,63.9,55.0,29.92,South,179,3.0,-999.0,73,-99.99,,,0.00,ADS-WS1 bash script,2013-04-30 00:40:00,
2013-04-29 20:50:00,63.4,54.0,29.92,South,183,3.0,-999.0,75,-99.99,,,0.00,ADS-WS1 bash script,2013-04-30 00:50:00,
2013-04-29 20:55:00,62.9,55.0,29.92,South,176,2.0,-999.0,76,-99.99,,,0.00,ADS-WS1 bash script,2013-04-30 00:55:00,
2013-04-29 21:05:00,62.5,54.0,29.92,SSE,156,5.0,-999.0,76,-99.99,,,0.00,ADS-WS1 bash script,2013-04-30 01:05:00,
2013-04-29 21:15:00,62.0,54.0,29.92,SSE,163,2.0,-999.0,76,-99.99,,,0.00,ADS-WS1 bash script,2013-04-30 01:15:00,
2013-04-29 21:20:00,61.8,54.0,29.93,South,179,1.0,-999.0,77,-99.99,,,0.00,ADS-WS1 bash script,2013-04-30 01:20:00,
2013-04-29 21:25:00,61.4,53.0,29.93,South,186,0.0,-999.0,77,-99.99,,,0.00,ADS-WS1 bash script,2013-04-30 01:25:00,
2013-04-29 21:30:00,61.2,54.0,29.93,South,186,2.0,-999.0,78,-99.99,,,0.00,ADS-WS1 bash script,2013-04-30 01:30:00,
2013-04-29 21:35:00,60.9,54.0,29.93,South,179,2.0,-999.0,79,-99.99,,,0.00,ADS-WS1 bash script,2013-04-30 01:35:00,
2013-04-29 21:45:00,60.3,53.0,29.93,South,183,4.0,-999.0,80,-99.99,,,0.00,ADS-WS1 bash script,2013-04-30 01:45:00,
2013-04-29 21:50:00,60.0,54.0,29.93,South,179,1.0,-999.0,81,-99.99,,,0.00,ADS-WS1 bash script,2013-04-30 01:50:00,
2013-04-29 21:55:00,60.0,54.0,29.93,South,179,2.0,-999.0,81,-99.99,,,0.00,ADS-WS1 bash script,2013-04-30 01:55:00,
2013-04-29 22:00:00,59.8,54.0,29.93,SW,214,2.0,-999.0,82,-99.99,,,0.00,ADS-WS1 bash script,2013-04-30 02:00:00,
2013-04-29 22:10:00,59.6,54.0,29.94,South,190,3.0,-999.0,83,-99.99,,,0.00,ADS-WS1 bash script,2013-04-30 02:10:00,
2013-04-29 22:15:00,59.4,53.0,29.94,South,179,1.0,-999.0,83,-99.99,,,0.00,ADS-WS1 bash script,2013-04-30 02:15:00,
2013-04-29 22:20:00,59.6,54.0,29.94,West,268,1.0,-999.0,83,-99.99,,,0.00,ADS-WS1 bash script,2013-04-30 02:20:00,
2013-04-29 22:25:00,59.6,54.0,29.94,South,179,2.0,-999.0,83,-99.99,,,0.00,ADS-WS1 bash script,2013-04-30 02:25:00,
2013-04-29 22:30:00,59.6,54.0,29.94,West,268,2.0,-999.0,83,-99.99,,,0.00,ADS-WS1 bash script,2013-04-30 02:30:00,
2013-04-29 22:35:00,59.6,54.0,29.94,West,268,0.0,-999.0,83,-99.99,,,0.00,ADS-WS1 bash script,2013-04-30 02:35:00,
2013-04-29 22:40:00,59.6,54.0,29.94,West,268,0.0,-999.0,83,-99.99,,,0.00,ADS-WS1 bash script,2013-04-30 02:40:00,
2013-04-29 22:50:00,59.4,54.0,29.95,SW,224,2.0,-999.0,84,-99.99,,,0.00,ADS-WS1 bash script,2013-04-30 02:50:00,
2013-04-29 22:55:00,59.4,54.0,29.94,South,179,1.0,-999.0,84,-99.99,,,0.00,ADS-WS1 bash script,2013-04-30 02:55:00,
2013-04-29 23:00:00,59.4,54.0,29.94,West,268,0.0,-999.0,84,-99.99,,,0.00,ADS-WS1 bash script,2013-04-30 03:00:00,
2013-04-29 23:05:00,59.4,54.0,29.94,South,179,0.0,-999.0,84,-99.99,,,0.00,ADS-WS1 bash script,2013-04-30 03:05:00,
2013-04-29 23:10:00,59.3,54.0,29.94,West,268,0.0,-999.0,85,-99.99,,,0.00,ADS-WS1 bash script,2013-04-30 03:10:00,
2013-04-29 23:15:00,59.1,54.0,29.94,SW,217,1.0,-999.0,84,-99.99,,,0.00,ADS-WS1 bash script,2013-04-30 03:15:00,
2013-04-29 23:20:00,59.1,54.0,29.94,SW,232,0.0,-999.0,85,-99.99,,,0.00,ADS-WS1 bash script,2013-04-30 03:20:00,
2013-04-29 23:25:00,58.9,54.0,29.95,SW,224,1.0,-999.0,86,-99.99,,,0.00,ADS-WS1 bash script,2013-04-30 03:25:00,
2013-04-29 23:30:00,58.7,54.0,29.95,West,268,0.0,-999.0,85,-99.99,,,0.00,ADS-WS1 bash script,2013-04-30 03:30:00,
2013-04-29 23:35:00,58.7,54.0,29.95,South,179,1.0,-999.0,85,-99.99,,,0.00,ADS-WS1 bash script,2013-04-30 03:35:00,
2013-04-29 23:40:00,58.7,54.0,29.95,West,268,0.0,-999.0,86,-99.99,,,0.00,ADS-WS1 bash script,2013-04-30 03:40:00,
2013-04-29 23:50:00,58.9,54.0,29.95,SSW,193,3.0,-999.0,86,-99.99,,,0.00,ADS-WS1 bash script,2013-04-30 03:50:00,
2013-04-29 23:55:00,59.1,54.0,29.94,South,179,1.0,-999.0,86,-99.99,,,0.00,ADS-WS1 bash script,2013-04-30 03:55:00,